Time;durP1;ratioP1;P1;durP2;ratioP2;P2;SDS_P1;SDS_P2;PMS_P1;PMS_P2;Temp;Humidity;BMP_temperature;BMP_pressure;BME280_temperature;BME280_humidity;BME280_pressure;Samples;Min_cycle;Max_cycle;Signal;HPM_P1;HPM_P2
2023/05/12 00:00:49;;;;;;;6.93;3.90;;;;;;;12.41;77.77;99970.19;5034113;28;20266;-71
2023/05/12 00:03:17;;;;;;;4.80;3.37;;;;;;;12.42;78.14;99974.47;5015217;28;20196;-72
2023/05/12 00:05:44;;;;;;;4.00;3.70;;;;;;;12.38;77.87;99974.06;5034275;28;20196;-72
2023/05/12 00:08:11;;;;;;;6.80;4.10;;;;;;;12.37;78.52;99969.72;5033899;28;20282;-71
2023/05/12 00:10:38;;;;;;;4.27;3.43;;;;;;;12.24;78.83;99966.97;5032587;28;20203;-72
2023/05/12 00:13:04;;;;;;;3.70;3.40;;;;;;;12.29;78.98;99969.88;5032880;28;20269;-71
2023/05/12 00:15:31;;;;;;;4.33;3.93;;;;;;;12.07;79.48;99962.13;5022620;28;20198;-70
2023/05/12 00:17:58;;;;;;;4.30;4.00;;;;;;;12.05;79.33;99967.66;5027856;28;20197;-71
2023/05/12 00:20:26;;;;;;;4.13;3.80;;;;;;;12.07;79.71;99965.63;5033705;28;20223;-71
2023/05/12 00:22:52;;;;;;;3.97;3.77;;;;;;;12.10;79.73;99959.94;5018093;28;20205;-71
2023/05/12 00:25:19;;;;;;;3.90;3.67;;;;;;;11.89;80.27;99967.97;5013901;28;20255;-72
2023/05/12 00:27:46;;;;;;;4.07;3.87;;;;;;;11.81;80.39;99949.47;5013640;28;20219;-71
2023/05/12 00:30:13;;;;;;;4.60;4.30;;;;;;;11.57;82.04;99957.00;5013892;28;20235;-72
2023/05/12 00:32:40;;;;;;;5.47;4.20;;;;;;;11.72;81.46;99960.44;5026659;28;20242;-70
2023/05/12 00:35:07;;;;;;;4.07;3.40;;;;;;;11.68;81.80;99953.88;5033641;28;20203;-71
2023/05/12 00:37:35;;;;;;;4.37;3.97;;;;;;;11.82;81.63;99967.09;5033404;28;20202;-71
2023/05/12 00:40:02;;;;;;;4.80;4.30;;;;;;;11.89;81.19;99962.66;5027302;28;20712;-71
2023/05/12 00:42:28;;;;;;;4.40;4.00;;;;;;;11.84;81.18;99969.56;5014055;28;20197;-71
2023/05/12 00:44:55;;;;;;;4.27;4.00;;;;;;;11.87;81.04;99967.31;5013618;28;20262;-71
2023/05/12 00:47:22;;;;;;;4.80;4.40;;;;;;;11.94;81.13;99970.88;5013959;28;20270;-70
2023/05/12 00:49:49;;;;;;;4.43;3.93;;;;;;;12.01;81.08;99974.38;5015608;28;20215;-71
2023/05/12 00:52:17;;;;;;;4.23;3.90;;;;;;;12.02;80.59;99976.06;5033046;28;20197;-71
2023/05/12 00:54:46;;;;;;;5.80;3.73;;;;;;;11.80;81.11;99977.09;5032904;28;20195;-70
2023/05/12 00:57:13;;;;;;;4.17;3.77;;;;;;;11.91;81.34;99975.75;5032996;28;20200;-71
2023/05/12 00:59:40;;;;;;;6.43;4.57;;;;;;;12.08;80.82;99980.59;5030483;28;20227;-71
2023/05/12 01:02:07;;;;;;;5.57;4.23;;;;;;;12.15;80.36;99984.13;5013198;28;20201;-71
2023/05/12 01:04:35;;;;;;;3.67;3.30;;;;;;;12.15;80.21;99989.47;5024274;28;20203;-71
2023/05/12 01:07:08;;;;;;;4.07;3.77;;;;;;;12.08;80.17;99983.25;5032645;28;20615;-71
2023/05/12 01:09:35;;;;;;;4.67;4.27;;;;;;;12.07;80.12;99976.28;5031161;28;20644;-75
2023/05/12 01:12:04;;;;;;;5.20;3.80;;;;;;;12.06;79.90;99974.66;5013159;28;20208;-71
2023/05/12 01:14:31;;;;;;;4.20;3.80;;;;;;;11.97;80.21;99982.97;5013219;28;20283;-70
2023/05/12 01:17:00;;;;;;;4.33;3.93;;;;;;;11.92;80.53;99982.72;5012675;28;20257;-72
2023/05/12 01:19:38;;;;;;;4.47;4.10;;;;;;;11.60;81.57;99981.41;5012962;28;20233;-71
2023/05/12 01:22:06;;;;;;;4.63;4.17;;;;;;;11.75;81.13;99982.16;5012932;28;20227;-71
2023/05/12 01:24:36;;;;;;;4.07;3.67;;;;;;;11.87;81.29;99985.13;5013054;28;20197;-71
2023/05/12 01:27:06;;;;;;;4.60;3.80;;;;;;;11.83;80.91;99984.69;5012514;28;20206;-72
2023/05/12 01:29:33;;;;;;;4.30;4.00;;;;;;;11.81;81.50;99975.25;5012575;28;20720;-72
2023/05/12 01:32:01;;;;;;;4.43;3.47;;;;;;;11.82;81.26;99977.72;5012911;28;20204;-72
2023/05/12 01:34:28;;;;;;;3.80;3.60;;;;;;;11.79;81.45;99978.09;5012911;28;20204;-71
2023/05/12 01:36:55;;;;;;;4.70;4.13;;;;;;;11.79;80.97;99974.63;5012622;28;20266;-70
2023/05/12 01:39:22;;;;;;;4.43;4.03;;;;;;;11.84;81.23;99978.34;5012325;28;20655;-70
2023/05/12 01:41:48;;;;;;;4.37;4.03;;;;;;;11.94;81.09;99970.03;5030233;28;20227;-70
2023/05/12 01:44:16;;;;;;;4.53;4.13;;;;;;;11.88;80.84;99974.28;5032036;28;20659;-70
2023/05/12 01:46:43;;;;;;;4.70;4.20;;;;;;;11.75;80.45;99971.53;5031955;28;20673;-70
2023/05/12 01:49:10;;;;;;;4.20;4.00;;;;;;;11.84;81.21;99975.69;5021946;28;20254;-71
2023/05/12 01:51:36;;;;;;;4.03;3.70;;;;;;;11.81;80.71;99976.09;5012153;28;20672;-71
2023/05/12 01:54:03;;;;;;;4.30;3.90;;;;;;;11.86;80.39;99973.66;5012585;28;20254;-71
2023/05/12 01:56:30;;;;;;;4.43;3.57;;;;;;;11.93;80.12;99981.72;5012101;28;20200;-71
2023/05/12 01:58:56;;;;;;;4.27;3.70;;;;;;;11.87;79.99;99979.81;5017521;28;20623;-69
2023/05/12 02:01:27;;;;;;;4.97;3.50;;;;;;;11.77;80.29;99966.84;5032047;28;20261;-69
2023/05/12 02:03:54;;;;;;;4.70;3.90;;;;;;;11.75;80.46;99976.84;5026491;28;20628;-70
2023/05/12 02:06:21;;;;;;;4.40;4.00;;;;;;;11.88;80.26;99978.81;5011583;28;20200;-69
2023/05/12 02:08:47;;;;;;;4.40;3.57;;;;;;;11.95;80.18;99983.16;5029543;28;20219;-70
2023/05/12 02:11:15;;;;;;;6.07;4.47;;;;;;;12.03;79.97;99964.38;5031973;28;20192;-69
2023/05/12 02:13:43;;;;;;;5.30;4.30;;;;;;;12.14;79.52;99966.53;5015509;28;20199;-69
2023/05/12 02:16:10;;;;;;;5.80;4.20;;;;;;;12.20;79.73;99965.72;5011910;28;20669;-69
2023/05/12 02:18:38;;;;;;;5.10;3.60;;;;;;;12.29;79.04;99972.53;5028334;28;20216;-69
2023/05/12 02:21:05;;;;;;;6.87;3.80;;;;;;;12.02;78.63;99978.72;5031866;28;20219;-69
2023/05/12 02:23:32;;;;;;;3.73;3.40;;;;;;;11.72;79.88;99971.91;5032105;28;20204;-69
2023/05/12 02:25:58;;;;;;;5.47;3.50;;;;;;;11.78;80.34;99970.31;5031222;28;20195;-70
2023/05/12 02:28:25;;;;;;;3.50;3.20;;;;;;;11.77;79.87;99972.16;5031491;28;20250;-69
2023/05/12 02:30:53;;;;;;;5.93;4.47;;;;;;;11.65;80.57;99965.72;5032059;28;20242;-69
2023/05/12 02:33:20;;;;;;;8.43;3.63;;;;;;;11.74;80.02;99969.88;5031518;28;20261;-70
2023/05/12 02:35:48;;;;;;;4.17;3.10;;;;;;;11.87;79.89;99975.31;5025296;28;20254;-69
2023/05/12 02:38:15;;;;;;;4.80;3.80;;;;;;;11.84;79.93;99965.03;5011950;28;20191;-69
2023/05/12 02:40:42;;;;;;;3.37;3.17;;;;;;;11.93;79.92;99963.91;5012002;28;20231;-69
2023/05/12 02:43:09;;;;;;;8.50;3.80;;;;;;;12.02;79.67;99968.06;5011712;28;20584;-69
2023/05/12 02:45:36;;;;;;;3.70;3.50;;;;;;;12.12;79.56;99973.88;5014597;28;20248;-70
2023/05/12 02:48:03;;;;;;;5.43;3.83;;;;;;;12.11;79.00;99971.38;5032084;28;20217;-69
2023/05/12 02:50:29;;;;;;;4.10;3.80;;;;;;;12.02;79.27;99972.56;5032200;28;20653;-69
2023/05/12 02:52:57;;;;;;;3.83;3.60;;;;;;;12.01;79.48;99969.06;5031792;28;20253;-69
2023/05/12 02:55:24;;;;;;;5.33;4.00;;;;;;;11.93;79.81;99965.72;5017006;28;20557;-69
2023/05/12 02:57:51;;;;;;;6.53;4.40;;;;;;;12.06;79.80;99969.31;5012013;28;20200;-69
2023/05/12 03:00:18;;;;;;;4.77;4.07;;;;;;;12.12;79.49;99984.50;5011941;28;20767;-69
2023/05/12 03:02:44;;;;;;;3.70;3.50;;;;;;;12.11;79.66;99984.69;5012175;28;20201;-69
2023/05/12 03:05:11;;;;;;;5.47;4.10;;;;;;;12.18;79.41;99982.91;5027745;28;20199;-69
2023/05/12 03:07:38;;;;;;;8.17;3.33;;;;;;;12.27;79.08;99984.41;5039794;28;20663;-69
2023/05/12 03:10:08;;;;;;;5.43;3.70;;;;;;;12.13;78.73;99990.69;5042334;28;20212;-69
2023/05/12 03:12:35;;;;;;;3.83;3.60;;;;;;;12.18;78.80;99983.75;5041959;28;20190;-70
2023/05/12 03:15:03;;;;;;;5.10;4.63;;;;;;;12.10;78.51;99999.03;5028225;28;20201;-69
2023/05/12 03:17:30;;;;;;;4.07;3.77;;;;;;;12.16;78.75;99995.63;5017403;28;20206;-71
2023/05/12 03:19:56;;;;;;;4.03;3.73;;;;;;;12.16;78.89;99996.44;5015419;28;20359;-71
2023/05/12 03:22:23;;;;;;;4.43;4.03;;;;;;;12.26;78.65;100001.41;5015006;28;20199;-71
2023/05/12 03:24:50;;;;;;;4.97;4.63;;;;;;;12.26;78.29;100001.41;5023440;28;20195;-70
2023/05/12 03:27:18;;;;;;;5.10;4.00;;;;;;;12.34;78.06;99999.44;5035070;28;20261;-73
2023/05/12 03:29:45;;;;;;;3.67;3.37;;;;;;;12.41;78.07;100000.28;5034643;28;20236;-73
2023/05/12 03:32:13;;;;;;;3.87;3.57;;;;;;;12.44;78.03;99999.91;5034621;28;20198;-73
2023/05/12 03:34:40;;;;;;;4.30;3.90;;;;;;;12.53;77.29;100008.59;5026946;28;20275;-75
2023/05/12 03:37:06;;;;;;;4.23;3.83;;;;;;;12.32;77.10;100008.63;5014940;28;20211;-73
2023/05/12 03:39:36;;;;;;;5.13;3.97;;;;;;;12.28;78.31;100002.03;5014907;28;20270;-74
2023/05/12 03:42:02;;;;;;;4.70;4.03;;;;;;;12.29;77.37;100001.03;5015781;28;20203;-74
2023/05/12 03:44:30;;;;;;;6.43;3.90;;;;;;;12.38;77.33;100016.69;5014609;28;20734;-73
2023/05/12 03:46:57;;;;;;;3.90;3.60;;;;;;;12.46;77.38;100011.16;5012907;28;20295;-74
2023/05/12 03:49:24;;;;;;;4.10;3.80;;;;;;;12.51;77.21;100027.41;5047109;28;20641;-74
2023/05/12 03:51:51;;;;;;;5.77;3.97;;;;;;;12.47;77.50;100033.31;5045925;28;20247;-69
2023/05/12 03:54:18;;;;;;;8.37;3.97;;;;;;;12.57;77.30;100025.81;5032597;28;20197;-68
2023/05/12 03:56:44;;;;;;;7.27;4.03;;;;;;;12.45;77.39;100027.38;5032641;28;20200;-69
2023/05/12 03:59:11;;;;;;;4.63;4.00;;;;;;;12.54;77.48;100029.66;5033828;28;20565;-68
2023/05/12 04:01:39;;;;;;;5.43;3.27;;;;;;;12.55;77.62;100033.19;5030006;28;20220;-68
2023/05/12 04:04:06;;;;;;;4.50;4.10;;;;;;;12.52;77.19;100033.56;5021279;28;20199;-69
2023/05/12 04:06:33;;;;;;;9.20;4.80;;;;;;;12.63;77.57;100036.53;5034223;28;20255;-68
2023/05/12 04:09:00;;;;;;;6.33;5.67;;;;;;;12.72;77.05;100039.84;5033946;28;20193;-68
2023/05/12 04:11:26;;;;;;;11.60;7.97;;;;;;;12.78;77.12;100034.53;5032573;28;20201;-68
2023/05/12 04:13:54;;;;;;;10.03;7.00;;;;;;;12.81;76.46;100028.00;5033565;28;20614;-68
2023/05/12 04:16:21;;;;;;;14.47;8.20;;;;;;;12.96;76.51;100039.34;5033972;28;20204;-68
2023/05/12 04:18:49;;;;;;;8.93;8.10;;;;;;;13.05;76.17;100033.69;5034091;28;20245;-69
2023/05/12 04:21:16;;;;;;;9.27;8.37;;;;;;;13.16;76.06;100038.47;5033611;28;20312;-68
2023/05/12 04:23:42;;;;;;;9.07;6.40;;;;;;;13.28;75.46;100039.50;5032522;28;20631;-69
2023/05/12 04:26:09;;;;;;;14.30;6.53;;;;;;;13.28;75.51;100038.72;5033630;28;20193;-70
2023/05/12 04:28:36;;;;;;;5.87;5.00;;;;;;;13.26;74.90;100038.91;5032878;28;20551;-69
2023/05/12 04:31:04;;;;;;;3.80;3.50;;;;;;;13.09;75.85;100026.94;5033460;28;20193;-70
2023/05/12 04:33:31;;;;;;;4.17;3.87;;;;;;;13.23;74.96;100031.28;5025595;28;20198;-70
2023/05/12 04:35:59;;;;;;;6.63;4.20;;;;;;;13.33;75.17;100033.59;5020557;28;20561;-69
2023/05/12 04:38:26;;;;;;;4.47;3.73;;;;;;;13.47;74.34;100025.41;5025773;28;20649;-69
2023/05/12 04:40:57;;;;;;;6.27;3.33;;;;;;;13.55;74.10;100027.91;5016545;28;20705;-70
2023/05/12 04:43:24;;;;;;;5.30;3.60;;;;;;;13.62;72.77;100028.75;5024813;28;20649;-68
2023/05/12 04:45:52;;;;;;;3.13;2.83;;;;;;;13.63;72.90;100029.56;5022221;28;20194;-70
2023/05/12 04:48:19;;;;;;;3.43;3.20;;;;;;;13.71;73.25;100027.53;5013494;28;20646;-68
2023/05/12 04:50:47;;;;;;;4.43;3.37;;;;;;;13.81;73.25;100035.16;5013464;28;20256;-69
2023/05/12 04:53:15;;;;;;;6.40;3.43;;;;;;;13.96;72.67;100033.09;5013023;28;20255;-69
2023/05/12 04:55:44;;;;;;;3.73;2.83;;;;;;;14.05;71.93;100035.38;5013492;28;20245;-69
2023/05/12 04:58:11;;;;;;;4.50;3.30;;;;;;;14.04;71.12;100047.09;5023622;28;20197;-70
2023/05/12 05:00:38;;;;;;;3.73;3.43;;;;;;;13.92;71.36;100040.69;5017654;28;20213;-70
2023/05/12 05:03:05;;;;;;;3.53;3.23;;;;;;;13.78;72.36;100032.88;5032744;28;20197;-68
2023/05/12 05:05:32;;;;;;;3.80;3.50;;;;;;;13.79;72.64;100046.03;5013634;28;20709;-69
2023/05/12 05:07:59;;;;;;;4.10;3.80;;;;;;;13.64;73.20;100042.69;5013554;28;20193;-73
2023/05/12 05:10:27;;;;;;;5.53;3.57;;;;;;;13.94;83.49;100017.28;5020944;28;20260;-73
2023/05/12 05:12:54;;;;;;;12.20;4.53;;;;;;;13.96;73.79;100036.59;5013814;28;20238;-76
2023/05/12 05:15:20;;;;;;;6.47;4.23;;;;;;;13.95;72.42;100034.97;5023657;28;20248;-77
2023/05/12 05:17:48;;;;;;;7.60;4.53;;;;;;;13.99;72.71;100041.53;5021157;28;20627;-76
2023/05/12 05:20:15;;;;;;;5.30;3.80;;;;;;;14.02;71.98;100051.81;5021913;28;20697;-76
2023/05/12 05:22:42;;;;;;;8.30;3.77;;;;;;;14.03;72.75;100037.44;5029956;28;20193;-79
2023/05/12 05:25:09;;;;;;;3.90;3.50;;;;;;;14.09;72.66;100047.28;5032526;28;20658;-80
2023/05/12 05:27:38;;;;;;;5.30;4.47;;;;;;;14.10;72.11;100048.91;5032762;28;20196;-79
2023/05/12 05:30:06;;;;;;;11.17;4.03;;;;;;;14.16;72.21;100040.09;5031878;28;20687;-78
2023/05/12 05:32:35;;;;;;;6.10;3.50;;;;;;;14.37;72.33;100050.59;5032035;28;20194;-81
2023/05/12 05:35:03;;;;;;;7.67;4.27;;;;;;;14.50;70.83;100061.28;5032602;28;20283;-74
2023/05/12 05:37:29;;;;;;;9.13;4.27;;;;;;;14.46;71.81;100054.69;5032959;28;20646;-81
2023/05/12 05:39:56;;;;;;;5.53;4.30;;;;;;;14.60;71.99;100040.31;5031898;28;20251;-80
2023/05/12 05:42:23;;;;;;;8.17;4.00;;;;;;;14.82;70.46;100057.72;5031542;28;20202;-81
2023/05/12 05:44:51;;;;;;;4.87;2.33;;;;;;;15.19;84.46;100027.56;5032469;28;20259;-71
2023/05/12 05:47:18;;;;;;;3.20;2.60;;;;;;;16.09;83.71;100026.44;5031917;28;20632;-72
2023/05/12 05:49:45;;;;;;;4.37;4.03;;;;;;;16.51;67.59;100057.84;5032098;28;20197;-74
2023/05/12 05:52:11;;;;;;;3.37;3.17;;;;;;;16.72;63.46;100065.50;5029795;28;20197;-76
2023/05/12 05:54:38;;;;;;;9.03;3.90;;;;;;;16.68;63.73;100058.91;5031347;28;20251;-77
2023/05/12 05:57:06;;;;;;;8.40;4.50;;;;;;;16.87;63.00;100063.28;5031412;28;20197;-76
2023/05/12 05:59:32;;;;;;;6.30;4.00;;;;;;;16.78;61.84;100064.63;5031344;28;20255;-76
2023/05/12 06:02:00;;;;;;;7.57;4.10;;;;;;;17.06;62.50;100067.63;5030513;28;20771;-76
2023/05/12 06:04:27;;;;;;;5.17;4.07;;;;;;;17.71;62.88;100067.63;5020902;28;20581;-77
2023/05/12 06:06:54;;;;;;;11.83;4.00;;;;;;;18.32;59.04;100080.78;5018966;28;20196;-74
2023/05/12 06:09:21;;;;;;;9.17;3.40;;;;;;;18.53;57.33;100089.13;5027382;28;20711;-76
2023/05/12 06:11:47;;;;;;;4.43;3.97;;;;;;;18.62;55.52;100093.13;5031596;28;20192;-75
2023/05/12 06:14:14;;;;;;;4.67;3.47;;;;;;;18.59;54.76;100061.28;5021686;28;20264;-77
2023/05/12 06:16:41;;;;;;;5.83;3.40;;;;;;;18.75;55.06;100070.56;5013807;28;20286;-83
2023/05/12 06:19:10;;;;;;;11.47;4.07;;;;;;;18.92;54.47;100074.16;5014684;28;20574;-78
2023/05/12 06:21:37;;;;;;;4.67;3.20;;;;;;;19.12;53.99;100077.31;5033275;28;20235;-80
2023/05/12 06:24:04;;;;;;;3.33;3.03;;;;;;;19.62;53.63;100083.75;5014125;28;20258;-83
2023/05/12 06:26:31;;;;;;;4.83;2.83;;;;;;;20.14;49.81;100088.81;5013180;28;20215;-80
2023/05/12 06:28:57;;;;;;;6.73;2.97;;;;;;;20.85;49.06;100073.75;5013337;28;20616;-80
2023/05/12 06:31:24;;;;;;;5.43;3.23;;;;;;;21.23;47.25;100085.38;5022690;28;20198;-77
2023/05/12 06:33:51;;;;;;;3.63;2.93;;;;;;;21.00;47.55;100079.41;5010208;28;20194;-77
2023/05/12 06:36:19;;;;;;;5.40;3.50;;;;;;;20.83;48.11;100067.78;5011292;28;20202;-77
2023/05/12 06:38:46;;;;;;;3.67;3.37;;;;;;;20.75;48.72;100079.84;5012556;28;20202;-78
2023/05/12 06:41:12;;;;;;;4.33;3.93;;;;;;;20.44;48.26;100070.44;5022204;28;20647;-78
2023/05/12 06:43:42;;;;;;;3.20;3.00;;;;;;;20.24;48.90;100074.69;5025354;28;20287;-77
2023/05/12 06:46:09;;;;;;;6.03;3.90;;;;;;;20.13;49.95;100075.56;5018595;28;20221;-80
2023/05/12 06:48:36;;;;;;;3.87;3.57;;;;;;;20.20;49.79;100078.94;5015799;28;20736;-81
2023/05/12 06:51:04;;;;;;;8.60;4.00;;;;;;;20.26;49.94;100076.06;5034528;28;20205;-79
2023/05/12 06:53:36;;;;;;;15.97;4.37;;;;;;;20.10;50.49;100059.88;5035367;28;20208;-81
2023/05/12 06:56:03;;;;;;;4.27;3.83;;;;;;;20.71;48.91;100067.88;5035070;28;20221;-78
2023/05/12 06:58:29;;;;;;;4.50;4.03;;;;;;;20.25;47.94;100079.00;5023709;28;20230;-78
2023/05/12 07:00:56;;;;;;;4.30;4.00;;;;;;;20.25;48.96;100069.03;5016553;28;20224;-78
2023/05/12 07:03:23;;;;;;;9.73;3.60;;;;;;;20.00;49.48;100065.06;5032121;28;20201;-77
2023/05/12 07:05:50;;;;;;;3.40;3.10;;;;;;;19.98;48.46;100064.50;5014538;28;20233;-76
2023/05/12 07:08:16;;;;;;;3.17;2.97;;;;;;;20.30;52.49;100058.31;5015288;28;20193;-80
2023/05/12 07:10:44;;;;;;;3.53;3.20;;;;;;;20.53;51.71;100055.47;5015181;28;20288;-79
2023/05/12 07:13:11;;;;;;;2.97;2.77;;;;;;;20.81;51.07;100059.94;5015236;28;20198;-79
2023/05/12 07:15:38;;;;;;;4.57;2.40;;;;;;;21.05;43.74;100069.47;5019171;28;20297;-83
2023/05/12 07:18:05;;;;;;;3.40;3.10;;;;;;;20.83;44.81;100071.31;5035003;28;20204;-78
2023/05/12 07:20:31;;;;;;;3.63;2.90;;;;;;;20.80;44.37;100063.69;5034623;28;20201;-80
2023/05/12 07:22:58;;;;;;;3.97;2.90;;;;;;;20.58;44.90;100055.53;5023077;28;20575;-77
2023/05/12 07:25:25;;;;;;;3.03;2.37;;;;;;;20.69;44.34;100066.50;5017639;28;20621;-82
2023/05/12 07:27:53;;;;;;;5.13;2.90;;;;;;;20.71;45.16;100062.50;5027340;28;20204;-80
2023/05/12 07:30:21;;;;;;;2.60;2.40;;;;;;;20.78;44.07;100075.81;5018814;28;20225;-84
2023/05/12 07:32:48;;;;;;;3.20;2.47;;;;;;;20.76;44.19;100070.66;5014785;28;20194;-80
2023/05/12 07:35:14;;;;;;;13.83;3.40;;;;;;;20.71;45.35;100065.19;5021806;28;20580;-80
2023/05/12 07:37:41;;;;;;;10.80;3.13;;;;;;;20.67;44.41;100066.75;5031492;28;20637;-77
2023/05/12 07:40:08;;;;;;;4.30;2.60;;;;;;;20.66;45.70;100065.09;5026329;28;20275;-80
2023/05/12 07:42:35;;;;;;;5.53;2.50;;;;;;;20.71;44.50;100072.47;5029047;28;20225;-83
2023/05/12 07:45:04;;;;;;;6.40;4.23;;;;;;;20.94;43.54;100067.69;5014606;28;20667;-76
2023/05/12 07:47:30;;;;;;;6.03;3.63;;;;;;;21.13;42.84;100052.84;5014515;28;20190;-76
2023/05/12 07:49:57;;;;;;;4.40;4.00;;;;;;;21.43;40.19;100071.34;5022100;28;20189;-75
2023/05/12 07:52:24;;;;;;;2.37;2.17;;;;;;;21.81;40.15;100061.22;5017903;28;20241;-73
2023/05/12 07:54:52;;;;;;;2.40;2.17;;;;;;;21.84;39.45;100041.78;5013622;28;20249;-77
2023/05/12 07:57:19;;;;;;;3.20;2.60;;;;;;;21.76;40.88;100058.47;5014029;28;20252;-74
2023/05/12 07:59:46;;;;;;;3.70;2.17;;;;;;;21.87;39.52;100057.53;5030368;28;20248;-75
2023/05/12 08:02:15;;;;;;;29.43;4.17;;;;;;;22.01;39.92;100064.13;5032866;28;20606;-75
2023/05/12 08:04:42;;;;;;;4.57;2.03;;;;;;;21.95;38.72;100065.19;5032899;28;20200;-76
2023/05/12 08:07:09;;;;;;;2.83;2.00;;;;;;;22.11;37.29;100058.84;5033629;28;20197;-73
2023/05/12 08:09:36;;;;;;;3.80;2.50;;;;;;;22.36;37.84;100041.97;5016542;28;20644;-79
2023/05/12 08:12:02;;;;;;;4.60;2.23;;;;;;;22.56;36.81;100053.81;5014192;28;20194;-80
2023/05/12 08:14:29;;;;;;;3.87;2.20;;;;;;;22.80;36.27;100068.63;5014265;28;20669;-79
2023/05/12 08:16:56;;;;;;;3.60;2.27;;;;;;;23.00;35.61;100066.03;5014548;28;20268;-79
2023/05/12 08:19:24;;;;;;;2.67;2.00;;;;;;;22.89;34.75;100064.34;5015689;28;20209;-77
2023/05/12 08:21:51;;;;;;;4.80;2.17;;;;;;;22.86;35.14;100072.16;5015935;28;20284;-78
2023/05/12 08:24:17;;;;;;;2.60;2.40;;;;;;;22.83;37.38;100064.56;5033989;28;20284;-85
2023/05/12 08:26:44;;;;;;;8.13;2.77;;;;;;;22.61;37.54;100063.84;5033851;28;20658;-79
2023/05/12 08:29:11;;;;;;;3.27;2.20;;;;;;;22.29;37.75;100060.34;5033633;28;20283;-83
2023/05/12 08:31:38;;;;;;;2.30;2.20;;;;;;;21.75;38.65;100059.56;5013975;28;20201;-84
2023/05/12 08:34:05;;;;;;;3.60;2.07;;;;;;;21.41;39.08;100058.06;5014348;28;20629;-82
2023/05/12 08:36:33;;;;;;;2.73;2.20;;;;;;;21.27;39.95;100051.38;5013504;28;20344;-81
2023/05/12 08:39:00;;;;;;;2.23;2.00;;;;;;;21.55;38.87;100053.88;5013266;28;20682;-77
2023/05/12 08:41:40;;;;;;;2.20;2.10;;;;;;;21.48;39.15;100053.25;5016609;28;20245;-80
2023/05/12 08:44:08;;;;;;;4.37;2.70;;;;;;;20.96;40.09;100054.78;5027298;28;20200;-81
2023/05/12 08:46:35;;;;;;;4.73;2.10;;;;;;;20.93;40.72;100049.88;5033101;28;20228;-78
2023/05/12 08:49:03;;;;;;;3.10;2.17;;;;;;;20.95;39.61;100049.63;5020012;28;20208;-79
2023/05/12 08:51:36;;;;;;;3.50;1.70;;;;;;;21.26;38.87;100051.63;5013331;28;20270;-78
2023/05/12 08:54:04;;;;;;;4.63;2.27;;;;;;;21.44;39.02;100056.75;5013265;28;20186;-80
2023/05/12 08:56:31;;;;;;;3.83;2.10;;;;;;;21.66;39.03;100050.25;5015998;28;20654;-82
2023/05/12 08:58:58;;;;;;;3.67;2.10;;;;;;;22.03;38.74;100056.59;5028948;28;20194;-79
2023/05/12 09:01:26;;;;;;;4.50;2.50;;;;;;;22.27;37.44;100057.91;5023928;28;20266;-81
2023/05/12 09:03:53;;;;;;;2.33;2.07;;;;;;;22.60;37.02;100054.94;5016416;28;20636;-83
2023/05/12 09:06:20;;;;;;;3.03;2.03;;;;;;;22.25;35.20;100049.19;5016037;28;21691;-77
2023/05/12 09:08:48;;;;;;;2.97;1.90;;;;;;;22.56;34.61;100051.13;5014927;28;20206;-79
2023/05/12 09:11:17;;;;;;;2.10;2.00;;;;;;;22.80;34.37;100040.69;5013462;28;20194;-78
2023/05/12 09:13:50;;;;;;;6.03;2.13;;;;;;;22.94;33.23;100041.84;5012452;28;20628;-80
2023/05/12 09:16:24;;;;;;;4.13;1.70;;;;;;;22.64;32.31;100042.50;5030416;28;20193;-79
2023/05/12 09:18:53;;;;;;;2.30;2.03;;;;;;;22.40;33.82;100029.56;5027880;28;20256;-77
2023/05/12 09:21:20;;;;;;;4.33;1.97;;;;;;;22.52;33.46;100039.16;5017631;28;20198;-77
2023/05/12 09:23:57;;;;;;;2.60;1.87;;;;;;;22.51;34.50;100032.13;5013461;28;20640;-78
2023/05/12 09:26:25;;;;;;;5.67;2.00;;;;;;;22.61;34.87;100037.59;5012247;28;20637;-75
2023/05/12 09:28:53;;;;;;;4.27;2.10;;;;;;;22.51;34.24;100036.72;5028120;28;20217;-74
2023/05/12 09:31:22;;;;;;;2.37;2.20;;;;;;;22.48;34.83;100032.63;5014070;28;20256;-75
2023/05/12 09:33:49;;;;;;;2.40;2.20;;;;;;;22.48;35.58;100043.47;5024849;28;20205;-76
2023/05/12 09:36:20;;;;;;;5.13;2.03;;;;;;;22.34;36.17;100031.41;5022985;28;20201;-78
2023/05/12 09:38:46;;;;;;;3.13;2.80;;;;;;;22.47;35.38;100024.78;5027673;28;20213;-78
2023/05/12 09:41:22;;;;;;;2.40;2.30;;;;;;;22.65;34.94;100022.47;5028670;28;20201;-78
2023/05/12 09:43:52;;;;;;;1.80;1.70;;;;;;;22.53;33.81;100019.13;5027997;28;20200;-77
2023/05/12 09:46:19;;;;;;;1.90;1.77;;;;;;;22.15;34.36;100032.88;5013327;28;20569;-76
2023/05/12 09:48:48;;;;;;;2.17;2.07;;;;;;;22.01;33.64;100004.59;5020862;28;20263;-74
2023/05/12 09:51:17;;;;;;;2.70;1.67;;;;;;;21.94;33.14;100036.50;5028020;28;20290;-74
2023/05/12 09:53:45;;;;;;;2.47;1.77;;;;;;;22.24;31.88;100025.94;5021235;28;20271;-77
2023/05/12 09:56:13;;;;;;;2.63;1.73;;;;;;;21.95;33.06;100021.06;5028200;28;20205;-75
2023/05/12 09:58:43;;;;;;;5.33;2.20;;;;;;;22.08;35.04;100013.34;5021129;28;20604;-76
2023/05/12 10:01:11;;;;;;;2.40;2.20;;;;;;;22.39;35.63;100012.50;5019874;28;20234;-76
2023/05/12 10:03:39;;;;;;;2.73;1.73;;;;;;;22.68;35.43;100021.94;5020617;28;20224;-77
2023/05/12 10:06:09;;;;;;;2.53;2.37;;;;;;;22.73;34.17;100008.44;5022143;28;20259;-79
2023/05/12 10:08:42;;;;;;;3.50;2.20;;;;;;;22.47;34.51;100022.88;5016041;28;20201;-73
2023/05/12 10:11:09;;;;;;;2.77;2.00;;;;;;;22.69;33.68;100023.56;5027907;28;20620;-74
2023/05/12 10:13:38;;;;;;;4.33;2.00;;;;;;;22.95;33.62;100022.63;5023323;28;20198;-74
2023/05/12 10:16:07;;;;;;;2.00;1.90;;;;;;;23.03;33.25;100008.56;5026344;28;20247;-74
2023/05/12 10:18:34;;;;;;;2.40;2.20;;;;;;;22.99;33.15;100022.94;5027191;28;20213;-78
2023/05/12 10:21:02;;;;;;;1.93;1.80;;;;;;;23.09;32.03;100021.09;5026574;28;20198;-70
2023/05/12 10:23:29;;;;;;;2.50;2.30;;;;;;;22.86;32.22;100012.53;5016097;28;20284;-72
2023/05/12 10:26:00;;;;;;;3.40;1.80;;;;;;;22.62;32.54;100016.75;5026313;28;20199;-71
2023/05/12 10:28:27;;;;;;;2.97;1.97;;;;;;;22.41;32.49;100009.56;5024237;28;20194;-74
2023/05/12 10:30:55;;;;;;;3.67;2.30;;;;;;;22.48;32.90;100004.72;5020560;28;20624;-74
2023/05/12 10:33:23;;;;;;;4.97;2.37;;;;;;;22.46;33.20;100006.88;5030965;28;20649;-74
2023/05/12 10:35:51;;;;;;;2.67;1.80;;;;;;;22.26;33.59;100007.50;5029909;28;20193;-73
2023/05/12 10:38:18;;;;;;;2.20;2.00;;;;;;;22.10;33.74;99997.69;5023484;28;20212;-75
2023/05/12 10:40:53;;;;;;;2.17;1.93;;;;;;;22.13;33.16;100016.06;5031437;28;20262;-75
2023/05/12 10:43:23;;;;;;;4.90;2.20;;;;;;;21.65;34.08;99996.41;5023315;28;20343;-74
2023/05/12 10:46:09;;;;;;;2.20;2.00;;;;;;;21.84;33.81;99993.09;5018621;28;20698;-72
2023/05/12 10:48:49;;;;;;;2.20;2.00;;;;;;;22.11;33.49;99993.88;5030236;28;20247;-73
2023/05/12 10:51:19;;;;;;;2.93;2.23;;;;;;;22.26;34.00;99991.28;5020392;28;20197;-75
2023/05/12 10:53:46;;;;;;;2.17;2.07;;;;;;;22.08;34.09;99983.56;5024631;28;20593;-72
2023/05/12 10:56:13;;;;;;;3.67;2.00;;;;;;;21.80;34.53;99981.16;5030099;28;20197;-71
2023/05/12 10:59:03;;;;;;;2.40;1.97;;;;;;;21.95;34.29;99984.00;5018566;28;20244;-72
2023/05/12 11:01:31;;;;;;;5.07;2.13;;;;;;;22.18;34.26;99983.66;5018978;28;20194;-74
2023/05/12 11:04:09;;;;;;;4.60;2.37;;;;;;;22.11;34.01;99993.88;5022125;28;20225;-71
2023/05/12 11:06:37;;;;;;;4.53;2.40;;;;;;;22.01;34.49;99982.97;5016514;28;20641;-71
2023/05/12 11:09:04;;;;;;;2.40;2.30;;;;;;;21.79;34.74;99982.25;5030941;28;20189;-69
2023/05/12 11:11:32;;;;;;;2.80;2.47;;;;;;;21.60;34.58;99980.94;5026819;28;20271;-71
2023/05/12 11:13:59;;;;;;;6.50;2.63;;;;;;;21.10;36.20;99990.41;5026926;28;20251;-72
2023/05/12 11:16:26;;;;;;;5.83;2.57;;;;;;;21.05;35.44;99938.97;5031377;28;20263;-71
2023/05/12 11:19:03;;;;;;;3.37;2.00;;;;;;;21.59;35.30;99984.72;5015895;28;20567;-70
2023/05/12 11:21:30;;;;;;;2.23;1.80;;;;;;;21.72;37.25;99978.91;5014254;28;20692;-69
2023/05/12 11:23:58;;;;;;;3.93;1.90;;;;;;;21.90;37.56;99980.44;5027190;28;20227;-70
2023/05/12 11:26:24;;;;;;;4.10;2.13;;;;;;;22.02;35.86;99987.31;5032809;28;20197;-69
2023/05/12 11:28:51;;;;;;;5.07;2.10;;;;;;;21.69;35.55;99981.31;5030148;28;20234;-72